JBU1172 KFLL-KLGA
Flight info
| Callsign | JBU1172 |
|---|---|
| Flight time | 2h 14m |
| Altitude | 39000 |
| Route | FEALX2 ETECK GRUBR Y299 SEELO GARIC Q107 HURTS PROUD2 |
| Aircraft | A320/M-SDE3FGHIRWY/LB1 |
Departure
| Time | 2026-05-03 22:21 |
|---|---|
| Airport | Fort Lauderdale Hollywood International Airport (KFLL) |
Arrival
| Time | 2026-05-04 00:36 |
|---|---|
| Airport | LaGuardia Airport (KLGA) |
| Time | Latitude | Longitude | Altitude | Speed | Heading |
|---|---|---|---|---|---|
| 2026-05-03 21:38 | 26.06888 | -80.14474 | 38 ft | 0 kts | 2° |
| 2026-05-03 21:52 | 26.06885 | -80.14475 | 37 ft | 2 kts | 2° |
| 2026-05-03 21:52 | 26.06860 | -80.14478 | 36 ft | 4 kts | 14° |
| 2026-05-03 21:52 | 26.06834 | -80.14486 | 39 ft | 4 kts | 13° |
| 2026-05-03 21:53 | 26.06816 | -80.14491 | 40 ft | 4 kts | 281° |
| 2026-05-03 21:53 | 26.06816 | -80.14490 | 40 ft | 1 kts | 251° |
| 2026-05-03 21:53 | 26.06816 | -80.14489 | 40 ft | 1 kts | 251° |
| 2026-05-03 21:55 | 26.06814 | -80.14497 | 40 ft | 2 kts | 250° |
| 2026-05-03 21:55 | 26.06806 | -80.14521 | 39 ft | 4 kts | 250° |
| 2026-05-03 21:55 | 26.06803 | -80.14528 | 39 ft | 1 kts | 249° |
| 2026-05-03 21:56 | 26.06797 | -80.14546 | 36 ft | 4 kts | 249° |
| 2026-05-03 21:56 | 26.06784 | -80.14580 | 37 ft | 0 kts | 237° |
| 2026-05-03 21:57 | 26.06778 | -80.14591 | 38 ft | 5 kts | 237° |
| 2026-05-03 21:57 | 26.06766 | -80.14650 | 38 ft | 11 kts | 271° |
| 2026-05-03 21:58 | 26.06767 | -80.14755 | 39 ft | 15 kts | 270° |
| 2026-05-03 21:58 | 26.06767 | -80.14873 | 39 ft | 16 kts | 270° |
| 2026-05-03 21:58 | 26.06767 | -80.15006 | 37 ft | 19 kts | 270° |
| 2026-05-03 21:58 | 26.06765 | -80.15106 | 36 ft | 9 kts | 253° |
| 2026-05-03 21:59 | 26.06716 | -80.15130 | 37 ft | 7 kts | 189° |
| 2026-05-03 21:59 | 26.06697 | -80.15176 | 37 ft | 8 kts | 267° |
| 2026-05-03 21:59 | 26.06696 | -80.15245 | 36 ft | 10 kts | 271° |
| 2026-05-03 21:59 | 26.06697 | -80.15324 | 35 ft | 11 kts | 269° |
| 2026-05-03 22:00 | 26.06697 | -80.15420 | 33 ft | 7 kts | 271° |
| 2026-05-03 22:00 | 26.06697 | -80.15424 | 33 ft | 0 kts | 271° |
| 2026-05-03 22:04 | 26.06697 | -80.15426 | 33 ft | 2 kts | 271° |
| 2026-05-03 22:05 | 26.06697 | -80.15439 | 32 ft | 0 kts | 271° |
| 2026-05-03 22:06 | 26.06697 | -80.15441 | 32 ft | 2 kts | 271° |
| 2026-05-03 22:06 | 26.06698 | -80.15467 | 31 ft | 5 kts | 270° |
| 2026-05-03 22:06 | 26.06698 | -80.15520 | 29 ft | 6 kts | 270° |
| 2026-05-03 22:06 | 26.06698 | -80.15524 | 29 ft | 0 kts | 270° |
| 2026-05-03 22:10 | 26.06698 | -80.15575 | 27 ft | 5 kts | 270° |
| 2026-05-03 22:10 | 26.06698 | -80.15598 | 27 ft | 2 kts | 270° |
| 2026-05-03 22:10 | 26.06698 | -80.15600 | 27 ft | 0 kts | 270° |
| 2026-05-03 22:15 | 26.06698 | -80.15601 | 27 ft | 1 kts | 270° |
| 2026-05-03 22:15 | 26.06698 | -80.15607 | 26 ft | 0 kts | 269° |
| 2026-05-03 22:15 | 26.06698 | -80.15611 | 26 ft | 0 kts | 269° |
| 2026-05-03 22:18 | 26.06698 | -80.15622 | 29 ft | 4 kts | 269° |
| 2026-05-03 22:18 | 26.06697 | -80.15672 | 26 ft | 9 kts | 269° |
| 2026-05-03 22:19 | 26.06697 | -80.15762 | 22 ft | 12 kts | 272° |
| 2026-05-03 22:19 | 26.06698 | -80.15797 | 21 ft | 7 kts | 272° |
| 2026-05-03 22:19 | 26.06688 | -80.15819 | 20 ft | 0 kts | 195° |
| 2026-05-03 22:20 | 26.06674 | -80.15822 | 21 ft | 6 kts | 194° |
| 2026-05-03 22:20 | 26.06607 | -80.15823 | 18 ft | 12 kts | 162° |
| 2026-05-03 22:20 | 26.06588 | -80.15743 | 21 ft | 13 kts | 90° |
| 2026-05-03 22:20 | 26.06588 | -80.15455 | 31 ft | 73 kts | 90° |
| 2026-05-03 22:21 | 26.06583 | -80.14638 | 45 ft | 134 kts | 90° |
| 2026-05-03 22:21 | 26.06583 | -80.13455 | 336 ft | 158 kts | 88° |
| 2026-05-03 22:21 | 26.06581 | -80.12247 | 1123 ft | 156 kts | 89° |
| 2026-05-03 22:21 | 26.06597 | -80.10998 | 1609 ft | 171 kts | 89° |
| 2026-05-03 22:22 | 26.06617 | -80.09592 | 1917 ft | 193 kts | 88° |
| 2026-05-03 22:22 | 26.06639 | -80.08004 | 2201 ft | 218 kts | 89° |
| 2026-05-03 22:22 | 26.06659 | -80.06229 | 2567 ft | 242 kts | 90° |
| 2026-05-03 22:22 | 26.06682 | -80.04255 | 3008 ft | 267 kts | 89° |
| 2026-05-03 22:23 | 26.06842 | -80.02157 | 3732 ft | 278 kts | 78° |
| 2026-05-03 22:23 | 26.07482 | -80.00112 | 4608 ft | 283 kts | 62° |
| 2026-05-03 22:23 | 26.08589 | -79.98288 | 5452 ft | 288 kts | 48° |
| 2026-05-03 22:23 | 26.09883 | -79.96563 | 6321 ft | 293 kts | 48° |
| 2026-05-03 22:24 | 26.11194 | -79.94803 | 7160 ft | 298 kts | 48° |
| 2026-05-03 22:24 | 26.12518 | -79.93011 | 7979 ft | 302 kts | 49° |
| 2026-05-03 22:24 | 26.13864 | -79.91186 | 8813 ft | 308 kts | 49° |
| 2026-05-03 22:24 | 26.15232 | -79.89327 | 9651 ft | 313 kts | 49° |
| 2026-05-03 22:25 | 26.16145 | -79.88071 | 10194 ft | 318 kts | 50° |
| 2026-05-03 22:25 | 26.17535 | -79.86042 | 10505 ft | 342 kts | 52° |
| 2026-05-03 22:25 | 26.18973 | -79.83837 | 10870 ft | 358 kts | 53° |
| 2026-05-03 22:25 | 26.20434 | -79.81555 | 11483 ft | 365 kts | 53° |
| 2026-05-03 22:26 | 26.21914 | -79.79232 | 12146 ft | 370 kts | 53° |
| 2026-05-03 22:26 | 26.23421 | -79.76883 | 12810 ft | 375 kts | 53° |
| 2026-05-03 22:26 | 26.24950 | -79.74512 | 13470 ft | 379 kts | 53° |
| 2026-05-03 22:26 | 26.26504 | -79.72115 | 14086 ft | 384 kts | 53° |
| 2026-05-03 22:27 | 26.28080 | -79.69692 | 14655 ft | 388 kts | 53° |
| 2026-05-03 22:27 | 26.29754 | -79.67314 | 15209 ft | 392 kts | 45° |
| 2026-05-03 22:27 | 26.31663 | -79.65121 | 15776 ft | 395 kts | 44° |
| 2026-05-03 22:27 | 26.33592 | -79.62917 | 16347 ft | 399 kts | 43° |
| 2026-05-03 22:28 | 26.35541 | -79.60689 | 16927 ft | 404 kts | 43° |
| 2026-05-03 22:28 | 26.37507 | -79.58434 | 17486 ft | 408 kts | 44° |
| 2026-05-03 22:28 | 26.39492 | -79.56149 | 18060 ft | 412 kts | 44° |
| 2026-05-03 22:28 | 26.41496 | -79.53837 | 18570 ft | 416 kts | 43° |
| 2026-05-03 22:29 | 26.43520 | -79.51500 | 19058 ft | 420 kts | 43° |
| 2026-05-03 22:29 | 26.45563 | -79.49143 | 19549 ft | 424 kts | 43° |
| 2026-05-03 22:29 | 26.47624 | -79.46767 | 20047 ft | 428 kts | 43° |
| 2026-05-03 22:29 | 26.49703 | -79.44368 | 20535 ft | 432 kts | 43° |
| 2026-05-03 22:30 | 26.51805 | -79.41942 | 21006 ft | 436 kts | 43° |
| 2026-05-03 22:30 | 26.53926 | -79.39502 | 21474 ft | 439 kts | 41° |
| 2026-05-03 22:30 | 26.56266 | -79.37312 | 21921 ft | 439 kts | 31° |
| 2026-05-03 22:30 | 26.58855 | -79.35497 | 22369 ft | 441 kts | 27° |
| 2026-05-03 22:31 | 26.61450 | -79.33741 | 22831 ft | 444 kts | 27° |
| 2026-05-03 22:31 | 26.64104 | -79.31944 | 23285 ft | 448 kts | 27° |
| 2026-05-03 22:31 | 26.66777 | -79.30130 | 23716 ft | 451 kts | 27° |
| 2026-05-03 22:31 | 26.69465 | -79.28301 | 24089 ft | 455 kts | 27° |
| 2026-05-03 22:32 | 26.72176 | -79.26451 | 24470 ft | 458 kts | 27° |
| 2026-05-03 22:32 | 26.74905 | -79.24589 | 24845 ft | 461 kts | 27° |
| 2026-05-03 22:32 | 26.77647 | -79.22719 | 25224 ft | 464 kts | 26° |
| 2026-05-03 22:32 | 26.80416 | -79.20831 | 25603 ft | 467 kts | 26° |
| 2026-05-03 22:33 | 26.83191 | -79.18933 | 25989 ft | 470 kts | 26° |
| 2026-05-03 22:33 | 26.85991 | -79.17016 | 26369 ft | 473 kts | 26° |
| 2026-05-03 22:33 | 26.88803 | -79.15090 | 26753 ft | 476 kts | 26° |
| 2026-05-03 22:33 | 26.91638 | -79.13151 | 27114 ft | 479 kts | 26° |
| 2026-05-03 22:34 | 26.94490 | -79.11200 | 27471 ft | 482 kts | 26° |
| 2026-05-03 22:34 | 26.97359 | -79.09238 | 27826 ft | 485 kts | 26° |
| 2026-05-03 22:34 | 27.00246 | -79.07262 | 28190 ft | 488 kts | 26° |
| 2026-05-03 22:34 | 27.03151 | -79.05271 | 28590 ft | 491 kts | 26° |
| 2026-05-03 22:35 | 27.06076 | -79.03266 | 28967 ft | 494 kts | 26° |
| 2026-05-03 22:35 | 27.09017 | -79.01248 | 29345 ft | 497 kts | 26° |
| 2026-05-03 22:35 | 27.11970 | -78.99218 | 29725 ft | 500 kts | 26° |
| 2026-05-03 22:35 | 27.14942 | -78.97173 | 30093 ft | 503 kts | 26° |
| 2026-05-03 22:36 | 27.17935 | -78.95111 | 30403 ft | 505 kts | 26° |
| 2026-05-03 22:36 | 27.20939 | -78.93040 | 30727 ft | 508 kts | 26° |
| 2026-05-03 22:36 | 27.23919 | -78.90988 | 31041 ft | 510 kts | 26° |
| 2026-05-03 22:36 | 27.26983 | -78.88878 | 31369 ft | 512 kts | 26° |
| 2026-05-03 22:37 | 27.30027 | -78.86779 | 31759 ft | 513 kts | 26° |
| 2026-05-03 22:37 | 27.33062 | -78.84683 | 32271 ft | 511 kts | 25° |
| 2026-05-03 22:37 | 27.36094 | -78.82595 | 32782 ft | 509 kts | 24° |
| 2026-05-03 22:37 | 27.39182 | -78.80844 | 33265 ft | 499 kts | 15° |
| 2026-05-03 22:38 | 27.42435 | -78.79609 | 33751 ft | 488 kts | 6° |
| 2026-05-03 22:38 | 27.45730 | -78.78917 | 34203 ft | 478 kts | 358° |
| 2026-05-03 22:38 | 27.49026 | -78.78460 | 34589 ft | 477 kts | 358° |
| 2026-05-03 22:38 | 27.52324 | -78.77988 | 34975 ft | 477 kts | 359° |
| 2026-05-03 22:39 | 27.55614 | -78.77504 | 35352 ft | 477 kts | 359° |
| 2026-05-03 22:39 | 27.58901 | -78.77016 | 35698 ft | 476 kts | 358° |
| 2026-05-03 22:39 | 27.62191 | -78.76525 | 36033 ft | 477 kts | 358° |
| 2026-05-03 22:39 | 27.65480 | -78.76033 | 36370 ft | 476 kts | 358° |
| 2026-05-03 22:40 | 27.68763 | -78.75544 | 36704 ft | 476 kts | 358° |
| 2026-05-03 22:40 | 27.72045 | -78.75061 | 37029 ft | 476 kts | 358° |
| 2026-05-03 22:40 | 27.75324 | -78.74585 | 37350 ft | 475 kts | 358° |
| 2026-05-03 22:40 | 27.78605 | -78.74109 | 37661 ft | 475 kts | 358° |
| 2026-05-03 22:41 | 27.81888 | -78.73631 | 37985 ft | 475 kts | 358° |
| 2026-05-03 22:41 | 27.85170 | -78.73149 | 38292 ft | 475 kts | 358° |
| 2026-05-03 22:41 | 27.88445 | -78.72665 | 38604 ft | 475 kts | 358° |
| 2026-05-03 22:41 | 27.91725 | -78.72180 | 38862 ft | 475 kts | 357° |
| 2026-05-03 22:42 | 27.95005 | -78.71694 | 39021 ft | 476 kts | 357° |
| 2026-05-03 22:42 | 28.01588 | -78.70723 | 39063 ft | 477 kts | 357° |
| 2026-05-03 22:43 | 28.08170 | -78.69760 | 39065 ft | 477 kts | 357° |
| 2026-05-03 22:43 | 28.14718 | -78.68792 | 39069 ft | 478 kts | 357° |
| 2026-05-03 22:44 | 28.21314 | -78.67810 | 39067 ft | 478 kts | 357° |
| 2026-05-03 22:44 | 28.27916 | -78.66831 | 39079 ft | 479 kts | 357° |
| 2026-05-03 22:45 | 28.34526 | -78.65848 | 39086 ft | 479 kts | 357° |
| 2026-05-03 22:45 | 28.41140 | -78.64868 | 39092 ft | 479 kts | 356° |
| 2026-05-03 22:46 | 28.47756 | -78.63887 | 39099 ft | 479 kts | 357° |
| 2026-05-03 22:46 | 28.54371 | -78.62897 | 39101 ft | 480 kts | 356° |
| 2026-05-03 22:47 | 28.60946 | -78.61913 | 39106 ft | 479 kts | 356° |
| 2026-05-03 22:47 | 28.67558 | -78.60928 | 39108 ft | 479 kts | 356° |
| 2026-05-03 22:48 | 28.74175 | -78.59947 | 39109 ft | 479 kts | 356° |
| 2026-05-03 22:48 | 28.80782 | -78.58955 | 39113 ft | 479 kts | 356° |
| 2026-05-03 22:49 | 28.87396 | -78.57959 | 39119 ft | 479 kts | 356° |
| 2026-05-03 22:49 | 28.94006 | -78.56964 | 39122 ft | 479 kts | 356° |
| 2026-05-03 22:50 | 29.00609 | -78.55977 | 39125 ft | 478 kts | 356° |
| 2026-05-03 22:50 | 29.07206 | -78.54983 | 39125 ft | 478 kts | 356° |
| 2026-05-03 22:51 | 29.13797 | -78.53986 | 39128 ft | 477 kts | 356° |
| 2026-05-03 22:51 | 29.20341 | -78.53002 | 39133 ft | 477 kts | 356° |
| 2026-05-03 22:52 | 29.26918 | -78.52012 | 39130 ft | 476 kts | 356° |
| 2026-05-03 22:52 | 29.33488 | -78.51019 | 39128 ft | 476 kts | 356° |
| 2026-05-03 22:53 | 29.40058 | -78.50022 | 39132 ft | 476 kts | 356° |
| 2026-05-03 22:53 | 29.46631 | -78.49034 | 39133 ft | 475 kts | 355° |
| 2026-05-03 22:53 | 29.49873 | -78.48896 | 39132 ft | 460 kts | 345° |
| 2026-05-03 22:54 | 29.53035 | -78.49200 | 39135 ft | 455 kts | 343° |
| 2026-05-03 22:54 | 29.59339 | -78.49883 | 39135 ft | 455 kts | 343° |
| 2026-05-03 22:55 | 29.65611 | -78.50565 | 39135 ft | 456 kts | 343° |
| 2026-05-03 22:55 | 29.71939 | -78.51243 | 39140 ft | 457 kts | 343° |
| 2026-05-03 22:56 | 29.78273 | -78.51922 | 39137 ft | 457 kts | 343° |
| 2026-05-03 22:56 | 29.84613 | -78.52622 | 39140 ft | 458 kts | 342° |
| 2026-05-03 22:57 | 29.90962 | -78.53316 | 39142 ft | 459 kts | 343° |
| 2026-05-03 22:57 | 29.97326 | -78.54006 | 39141 ft | 460 kts | 343° |
| 2026-05-03 22:58 | 30.03707 | -78.54692 | 39144 ft | 460 kts | 343° |
| 2026-05-03 22:58 | 30.10087 | -78.55393 | 39146 ft | 461 kts | 343° |
| 2026-05-03 22:59 | 30.16562 | -78.55699 | 39146 ft | 479 kts | 355° |
| 2026-05-03 22:59 | 30.23223 | -78.54752 | 39143 ft | 483 kts | 356° |
| 2026-05-03 23:00 | 30.29895 | -78.53776 | 39147 ft | 483 kts | 356° |
| 2026-05-03 23:00 | 30.36572 | -78.52820 | 39153 ft | 484 kts | 356° |
| 2026-05-03 23:01 | 30.43221 | -78.51865 | 39154 ft | 485 kts | 357° |
| 2026-05-03 23:01 | 30.49913 | -78.50812 | 39159 ft | 486 kts | 358° |
| 2026-05-03 23:02 | 30.56619 | -78.49691 | 39164 ft | 487 kts | 358° |
| 2026-05-03 23:02 | 30.63326 | -78.48582 | 39158 ft | 487 kts | 358° |
| 2026-05-03 23:03 | 30.70041 | -78.47497 | 39165 ft | 487 kts | 358° |
| 2026-05-03 23:03 | 30.76763 | -78.46410 | 39166 ft | 488 kts | 357° |
| 2026-05-03 23:04 | 30.83491 | -78.45327 | 39143 ft | 488 kts | 358° |
| 2026-05-03 23:04 | 30.90223 | -78.44229 | 39146 ft | 489 kts | 358° |
| 2026-05-03 23:05 | 30.96962 | -78.43115 | 39147 ft | 489 kts | 358° |
| 2026-05-03 23:05 | 31.03712 | -78.42000 | 39143 ft | 490 kts | 358° |
| 2026-05-03 23:06 | 31.10419 | -78.40905 | 39155 ft | 490 kts | 358° |
| 2026-05-03 23:06 | 31.17183 | -78.39807 | 39161 ft | 491 kts | 357° |
| 2026-05-03 23:07 | 31.23959 | -78.38699 | 39168 ft | 492 kts | 358° |
| 2026-05-03 23:07 | 31.30742 | -78.37575 | 39172 ft | 493 kts | 358° |
| 2026-05-03 23:08 | 31.37534 | -78.36451 | 39181 ft | 493 kts | 357° |
| 2026-05-03 23:08 | 31.44332 | -78.35339 | 39179 ft | 494 kts | 357° |
| 2026-05-03 23:09 | 31.51147 | -78.34216 | 39182 ft | 495 kts | 357° |
| 2026-05-03 23:09 | 31.57983 | -78.33089 | 39178 ft | 497 kts | 357° |
| 2026-05-03 23:10 | 31.64840 | -78.31949 | 39167 ft | 498 kts | 357° |
| 2026-05-03 23:10 | 31.71718 | -78.30805 | 39163 ft | 500 kts | 358° |
| 2026-05-03 23:11 | 31.78578 | -78.29663 | 39166 ft | 502 kts | 358° |
| 2026-05-03 23:11 | 31.85506 | -78.28509 | 39164 ft | 503 kts | 358° |
| 2026-05-03 23:12 | 31.92448 | -78.27350 | 39165 ft | 505 kts | 358° |
| 2026-05-03 23:12 | 31.99406 | -78.26179 | 39174 ft | 506 kts | 358° |
| 2026-05-03 23:13 | 32.06386 | -78.25046 | 39187 ft | 506 kts | 356° |
| 2026-05-03 23:13 | 32.13369 | -78.24047 | 39186 ft | 506 kts | 355° |
| 2026-05-03 23:14 | 32.20373 | -78.23073 | 39189 ft | 507 kts | 355° |
| 2026-05-03 23:14 | 32.27388 | -78.22058 | 39190 ft | 509 kts | 356° |
| 2026-05-03 23:15 | 32.34426 | -78.21015 | 39192 ft | 510 kts | 355° |
| 2026-05-03 23:15 | 32.41482 | -78.19979 | 39193 ft | 511 kts | 355° |
| 2026-05-03 23:16 | 32.48533 | -78.18944 | 39197 ft | 511 kts | 355° |
| 2026-05-03 23:16 | 32.55597 | -78.17896 | 39195 ft | 512 kts | 355° |
| 2026-05-03 23:17 | 32.62619 | -78.16859 | 39198 ft | 512 kts | 355° |
| 2026-05-03 23:17 | 32.69682 | -78.15826 | 39197 ft | 512 kts | 355° |
| 2026-05-03 23:18 | 32.76754 | -78.14784 | 39201 ft | 512 kts | 355° |
| 2026-05-03 23:18 | 32.83828 | -78.13727 | 39198 ft | 512 kts | 355° |
| 2026-05-03 23:19 | 32.89710 | -78.12852 | 39203 ft | 512 kts | 355° |
| 2026-05-03 23:19 | 32.96787 | -78.11803 | 39198 ft | 512 kts | 355° |
| 2026-05-03 23:20 | 33.03860 | -78.10759 | 39196 ft | 512 kts | 355° |
| 2026-05-03 23:20 | 33.10923 | -78.09710 | 39188 ft | 512 kts | 355° |
| 2026-05-03 23:21 | 33.17934 | -78.08649 | 39131 ft | 501 kts | 354° |
| 2026-05-03 23:21 | 33.24801 | -78.07607 | 39149 ft | 497 kts | 353° |
| 2026-05-03 23:22 | 33.35061 | -78.06102 | 39148 ft | 497 kts | 353° |
| 2026-05-03 23:22 | 33.41915 | -78.05076 | 39147 ft | 496 kts | 354° |
| 2026-05-03 23:23 | 33.48765 | -78.04032 | 39156 ft | 496 kts | 354° |
| 2026-05-03 23:23 | 33.55621 | -78.02997 | 39171 ft | 496 kts | 354° |
| 2026-05-03 23:24 | 33.62473 | -78.01969 | 39163 ft | 496 kts | 354° |
| 2026-05-03 23:24 | 33.69319 | -78.00936 | 39160 ft | 496 kts | 354° |
| 2026-05-03 23:25 | 33.76159 | -77.99905 | 39154 ft | 495 kts | 354° |
| 2026-05-03 23:25 | 33.82990 | -77.98874 | 39149 ft | 494 kts | 354° |
| 2026-05-03 23:26 | 33.89818 | -77.97834 | 39149 ft | 494 kts | 354° |
| 2026-05-03 23:26 | 33.96637 | -77.96768 | 39149 ft | 494 kts | 354° |
| 2026-05-03 23:27 | 34.03405 | -77.95697 | 39148 ft | 493 kts | 355° |
| 2026-05-03 23:27 | 34.10207 | -77.94623 | 39149 ft | 493 kts | 354° |
| 2026-05-03 23:28 | 34.16998 | -77.93556 | 39153 ft | 492 kts | 354° |
| 2026-05-03 23:28 | 34.23781 | -77.92498 | 39149 ft | 491 kts | 354° |
| 2026-05-03 23:29 | 34.30542 | -77.91439 | 39152 ft | 490 kts | 355° |
| 2026-05-03 23:29 | 34.37298 | -77.90372 | 39150 ft | 489 kts | 355° |
| 2026-05-03 23:30 | 34.44035 | -77.89300 | 39148 ft | 488 kts | 355° |
| 2026-05-03 23:30 | 34.50717 | -77.88243 | 39143 ft | 487 kts | 355° |
| 2026-05-03 23:31 | 34.57435 | -77.87187 | 39143 ft | 486 kts | 355° |
| 2026-05-03 23:31 | 34.64136 | -77.86122 | 39141 ft | 485 kts | 355° |
| 2026-05-03 23:32 | 34.70822 | -77.85056 | 39140 ft | 484 kts | 355° |
| 2026-05-03 23:32 | 34.77508 | -77.83992 | 39139 ft | 484 kts | 355° |
| 2026-05-03 23:33 | 34.84175 | -77.82934 | 39146 ft | 483 kts | 355° |
| 2026-05-03 23:33 | 34.90845 | -77.81151 | 39148 ft | 497 kts | 4° |
| 2026-05-03 23:34 | 34.97507 | -77.78883 | 39145 ft | 496 kts | 4° |
| 2026-05-03 23:34 | 35.04154 | -77.76627 | 39148 ft | 496 kts | 4° |
| 2026-05-03 23:35 | 35.10761 | -77.74390 | 39150 ft | 495 kts | 4° |
| 2026-05-03 23:35 | 35.17396 | -77.72133 | 39138 ft | 495 kts | 4° |
| 2026-05-03 23:36 | 35.24032 | -77.69881 | 39137 ft | 495 kts | 4° |
| 2026-05-03 23:36 | 35.30660 | -77.67624 | 39135 ft | 494 kts | 5° |
| 2026-05-03 23:37 | 35.37282 | -77.65368 | 39135 ft | 494 kts | 5° |
| 2026-05-03 23:37 | 35.43897 | -77.63110 | 39140 ft | 493 kts | 5° |
| 2026-05-03 23:38 | 35.50502 | -77.60849 | 39142 ft | 493 kts | 5° |
| 2026-05-03 23:38 | 35.57104 | -77.58584 | 39143 ft | 492 kts | 5° |
| 2026-05-03 23:39 | 35.63699 | -77.56315 | 39133 ft | 491 kts | 5° |
| 2026-05-03 23:39 | 35.70277 | -77.54050 | 39135 ft | 491 kts | 5° |
| 2026-05-03 23:40 | 35.76800 | -77.51816 | 39133 ft | 489 kts | 4° |
| 2026-05-03 23:40 | 35.83372 | -77.49673 | 39134 ft | 488 kts | 4° |
| 2026-05-03 23:41 | 35.89948 | -77.47571 | 39138 ft | 488 kts | 4° |
| 2026-05-03 23:41 | 35.96512 | -77.45450 | 39139 ft | 487 kts | 4° |
| 2026-05-03 23:42 | 36.03068 | -77.43301 | 39142 ft | 487 kts | 4° |
| 2026-05-03 23:42 | 36.09611 | -77.41136 | 39137 ft | 487 kts | 4° |
| 2026-05-03 23:43 | 36.16148 | -77.38982 | 39138 ft | 486 kts | 4° |
| 2026-05-03 23:43 | 36.22682 | -77.36839 | 39135 ft | 485 kts | 4° |
| 2026-05-03 23:44 | 36.29198 | -77.34689 | 39133 ft | 485 kts | 4° |
| 2026-05-03 23:44 | 36.35713 | -77.32541 | 39133 ft | 484 kts | 4° |
| 2026-05-03 23:45 | 36.42220 | -77.30389 | 39135 ft | 483 kts | 4° |
| 2026-05-03 23:45 | 36.48711 | -77.28238 | 39133 ft | 483 kts | 4° |
| 2026-05-03 23:46 | 36.55161 | -77.26102 | 39130 ft | 482 kts | 4° |
| 2026-05-03 23:46 | 36.61638 | -77.23950 | 39134 ft | 481 kts | 4° |
| 2026-05-03 23:47 | 36.68104 | -77.21795 | 39133 ft | 481 kts | 4° |
| 2026-05-03 23:47 | 36.74564 | -77.19637 | 39129 ft | 480 kts | 4° |
| 2026-05-03 23:48 | 36.81015 | -77.17482 | 39119 ft | 480 kts | 4° |
| 2026-05-03 23:48 | 36.87463 | -77.15327 | 39119 ft | 479 kts | 4° |
| 2026-05-03 23:49 | 36.93902 | -77.13175 | 39121 ft | 479 kts | 4° |
| 2026-05-03 23:49 | 37.00339 | -77.11013 | 39124 ft | 479 kts | 5° |
| 2026-05-03 23:50 | 37.05681 | -77.09207 | 39121 ft | 478 kts | 5° |
| 2026-05-03 23:50 | 37.13191 | -77.06672 | 39119 ft | 478 kts | 5° |
| 2026-05-03 23:51 | 37.19575 | -77.04518 | 39121 ft | 478 kts | 5° |
| 2026-05-03 23:51 | 37.25989 | -77.02349 | 39116 ft | 478 kts | 5° |
| 2026-05-03 23:52 | 37.32449 | -77.00154 | 39122 ft | 477 kts | 5° |
| 2026-05-03 23:52 | 37.38814 | -76.97991 | 39119 ft | 477 kts | 5° |
| 2026-05-03 23:53 | 37.45214 | -76.95760 | 39118 ft | 481 kts | 9° |
| 2026-05-03 23:53 | 37.48334 | -76.94075 | 39115 ft | 494 kts | 18° |
| 2026-05-03 23:53 | 37.51374 | -76.92063 | 39116 ft | 494 kts | 18° |
| 2026-05-03 23:54 | 37.57451 | -76.88018 | 39120 ft | 494 kts | 18° |
| 2026-05-03 23:54 | 37.63520 | -76.83961 | 39118 ft | 494 kts | 18° |
| 2026-05-03 23:55 | 37.69585 | -76.79908 | 39114 ft | 493 kts | 18° |
| 2026-05-03 23:55 | 37.75644 | -76.75867 | 39104 ft | 492 kts | 18° |
| 2026-05-03 23:56 | 37.81698 | -76.71818 | 39102 ft | 492 kts | 18° |
| 2026-05-03 23:56 | 37.87753 | -76.67762 | 39102 ft | 492 kts | 18° |
| 2026-05-03 23:57 | 37.93786 | -76.63854 | 39102 ft | 490 kts | 17° |
| 2026-05-03 23:57 | 37.99894 | -76.60041 | 39090 ft | 489 kts | 17° |
| 2026-05-03 23:58 | 38.06006 | -76.56211 | 39089 ft | 489 kts | 17° |
| 2026-05-03 23:58 | 38.12094 | -76.52342 | 39084 ft | 490 kts | 17° |
| 2026-05-03 23:59 | 38.18186 | -76.48451 | 39088 ft | 490 kts | 17° |
| 2026-05-03 23:59 | 38.24276 | -76.44560 | 39084 ft | 490 kts | 18° |
| 2026-05-04 00:00 | 38.30272 | -76.40366 | 39086 ft | 500 kts | 28° |
| 2026-05-04 00:00 | 38.35823 | -76.34955 | 39085 ft | 503 kts | 30° |
| 2026-05-04 00:01 | 38.38606 | -76.32232 | 38710 ft | 506 kts | 30° |
| 2026-05-04 00:01 | 38.41421 | -76.29489 | 37814 ft | 512 kts | 30° |
| 2026-05-04 00:01 | 38.44252 | -76.26730 | 37195 ft | 512 kts | 29° |
| 2026-05-04 00:01 | 38.47082 | -76.23965 | 36414 ft | 515 kts | 29° |
| 2026-05-04 00:02 | 38.49931 | -76.21176 | 35749 ft | 515 kts | 29° |
| 2026-05-04 00:02 | 38.52766 | -76.18388 | 35125 ft | 514 kts | 29° |
| 2026-05-04 00:02 | 38.55592 | -76.15601 | 34584 ft | 512 kts | 28° |
| 2026-05-04 00:02 | 38.58356 | -76.12868 | 34168 ft | 506 kts | 28° |
| 2026-05-04 00:03 | 38.61122 | -76.10125 | 33658 ft | 501 kts | 28° |
| 2026-05-04 00:03 | 38.63870 | -76.07415 | 33113 ft | 496 kts | 28° |
| 2026-05-04 00:03 | 38.66619 | -76.04783 | 32606 ft | 489 kts | 27° |
| 2026-05-04 00:03 | 38.69349 | -76.02243 | 32085 ft | 483 kts | 26° |
| 2026-05-04 00:04 | 38.72072 | -75.99747 | 31592 ft | 478 kts | 26° |
| 2026-05-04 00:04 | 38.74764 | -75.97283 | 31109 ft | 473 kts | 26° |
| 2026-05-04 00:04 | 38.77420 | -75.94836 | 30630 ft | 468 kts | 26° |
| 2026-05-04 00:04 | 38.80041 | -75.92397 | 30172 ft | 464 kts | 26° |
| 2026-05-04 00:05 | 38.82631 | -75.89969 | 29616 ft | 459 kts | 26° |
| 2026-05-04 00:05 | 38.85194 | -75.87554 | 29077 ft | 454 kts | 27° |
| 2026-05-04 00:05 | 38.87720 | -75.85166 | 28549 ft | 449 kts | 27° |
| 2026-05-04 00:05 | 38.90218 | -75.82801 | 28025 ft | 444 kts | 27° |
| 2026-05-04 00:06 | 38.92689 | -75.80464 | 27504 ft | 439 kts | 27° |
| 2026-05-04 00:06 | 38.95135 | -75.78158 | 27026 ft | 433 kts | 27° |
| 2026-05-04 00:06 | 38.97546 | -75.75887 | 26691 ft | 425 kts | 27° |
| 2026-05-04 00:06 | 38.99892 | -75.73670 | 26513 ft | 413 kts | 27° |
| 2026-05-04 00:07 | 39.02184 | -75.71500 | 26302 ft | 405 kts | 26° |
| 2026-05-04 00:07 | 39.04442 | -75.69369 | 26106 ft | 401 kts | 26° |
| 2026-05-04 00:07 | 39.06687 | -75.67255 | 25892 ft | 399 kts | 26° |
| 2026-05-04 00:07 | 39.08920 | -75.65155 | 25699 ft | 397 kts | 26° |
| 2026-05-04 00:08 | 39.11116 | -75.63078 | 25500 ft | 396 kts | 27° |
| 2026-05-04 00:08 | 39.13324 | -75.60980 | 25309 ft | 394 kts | 27° |
| 2026-05-04 00:08 | 39.15528 | -75.58882 | 25102 ft | 393 kts | 27° |
| 2026-05-04 00:08 | 39.17713 | -75.56801 | 24907 ft | 391 kts | 27° |
| 2026-05-04 00:09 | 39.19906 | -75.54713 | 24710 ft | 390 kts | 27° |
| 2026-05-04 00:09 | 39.22084 | -75.52642 | 24510 ft | 389 kts | 27° |
| 2026-05-04 00:09 | 39.24258 | -75.50583 | 24321 ft | 387 kts | 27° |
| 2026-05-04 00:09 | 39.26447 | -75.48592 | 24127 ft | 384 kts | 26° |
| 2026-05-04 00:10 | 39.28653 | -75.46646 | 23938 ft | 382 kts | 25° |
| 2026-05-04 00:10 | 39.30851 | -75.44730 | 23748 ft | 381 kts | 25° |
| 2026-05-04 00:10 | 39.33044 | -75.42818 | 23545 ft | 380 kts | 26° |
| 2026-05-04 00:10 | 39.35225 | -75.40902 | 23344 ft | 379 kts | 26° |
| 2026-05-04 00:11 | 39.37400 | -75.38978 | 23151 ft | 378 kts | 26° |
| 2026-05-04 00:11 | 39.39561 | -75.37056 | 22969 ft | 377 kts | 26° |
| 2026-05-04 00:11 | 39.41711 | -75.35138 | 22774 ft | 375 kts | 26° |
| 2026-05-04 00:11 | 39.43857 | -75.33223 | 22593 ft | 374 kts | 27° |
| 2026-05-04 00:12 | 39.45271 | -75.31961 | 22474 ft | 373 kts | 27° |
| 2026-05-04 00:12 | 39.47402 | -75.30058 | 22285 ft | 372 kts | 27° |
| 2026-05-04 00:12 | 39.49529 | -75.28157 | 22094 ft | 370 kts | 27° |
| 2026-05-04 00:12 | 39.51646 | -75.26257 | 21838 ft | 370 kts | 27° |
| 2026-05-04 00:13 | 39.53745 | -75.24327 | 21384 ft | 369 kts | 28° |
| 2026-05-04 00:13 | 39.55815 | -75.22388 | 20987 ft | 365 kts | 28° |
| 2026-05-04 00:13 | 39.57859 | -75.20455 | 20581 ft | 362 kts | 29° |
| 2026-05-04 00:13 | 39.59889 | -75.18536 | 20188 ft | 360 kts | 29° |
| 2026-05-04 00:14 | 39.61906 | -75.16629 | 19801 ft | 357 kts | 29° |
| 2026-05-04 00:14 | 39.63906 | -75.14742 | 19412 ft | 355 kts | 29° |
| 2026-05-04 00:14 | 39.65900 | -75.12867 | 19026 ft | 352 kts | 29° |
| 2026-05-04 00:14 | 39.67877 | -75.11008 | 18644 ft | 350 kts | 29° |
| 2026-05-04 00:15 | 39.69871 | -75.09214 | 18262 ft | 347 kts | 27° |
| 2026-05-04 00:15 | 39.71874 | -75.07488 | 17856 ft | 343 kts | 27° |
| 2026-05-04 00:15 | 39.73835 | -75.05829 | 17519 ft | 340 kts | 26° |
| 2026-05-04 00:15 | 39.75814 | -75.04163 | 17181 ft | 338 kts | 26° |
| 2026-05-04 00:16 | 39.77778 | -75.02505 | 16817 ft | 335 kts | 27° |
| 2026-05-04 00:16 | 39.79720 | -75.00849 | 16448 ft | 332 kts | 27° |
| 2026-05-04 00:16 | 39.81643 | -74.99198 | 16085 ft | 330 kts | 27° |
| 2026-05-04 00:16 | 39.83544 | -74.97554 | 15729 ft | 327 kts | 28° |
| 2026-05-04 00:17 | 39.85426 | -74.95922 | 15379 ft | 324 kts | 28° |
| 2026-05-04 00:17 | 39.87283 | -74.94267 | 15029 ft | 322 kts | 29° |
| 2026-05-04 00:17 | 39.89111 | -74.92601 | 14677 ft | 319 kts | 30° |
| 2026-05-04 00:17 | 39.90921 | -74.90944 | 14333 ft | 317 kts | 30° |
| 2026-05-04 00:18 | 39.92640 | -74.89157 | 13989 ft | 318 kts | 40° |
| 2026-05-04 00:18 | 39.94144 | -74.87034 | 13629 ft | 318 kts | 43° |
| 2026-05-04 00:18 | 39.95620 | -74.84913 | 13268 ft | 315 kts | 43° |
| 2026-05-04 00:18 | 39.97082 | -74.82815 | 12926 ft | 311 kts | 42° |
| 2026-05-04 00:19 | 39.98533 | -74.80733 | 12590 ft | 308 kts | 42° |
| 2026-05-04 00:19 | 39.99971 | -74.78674 | 12252 ft | 306 kts | 42° |
| 2026-05-04 00:19 | 40.01401 | -74.76628 | 11914 ft | 304 kts | 42° |
| 2026-05-04 00:19 | 40.02814 | -74.74601 | 11588 ft | 302 kts | 42° |
| 2026-05-04 00:20 | 40.04224 | -74.72577 | 11248 ft | 300 kts | 42° |
| 2026-05-04 00:20 | 40.05618 | -74.70576 | 10921 ft | 298 kts | 42° |
| 2026-05-04 00:20 | 40.07007 | -74.68581 | 10656 ft | 294 kts | 42° |
| 2026-05-04 00:20 | 40.08352 | -74.66646 | 10346 ft | 291 kts | 41° |
| 2026-05-04 00:21 | 40.09724 | -74.64671 | 10091 ft | 287 kts | 41° |
| 2026-05-04 00:21 | 40.11037 | -74.62780 | 10048 ft | 284 kts | 41° |
| 2026-05-04 00:21 | 40.12367 | -74.60868 | 10052 ft | 285 kts | 41° |
| 2026-05-04 00:21 | 40.13702 | -74.58954 | 10055 ft | 285 kts | 41° |
| 2026-05-04 00:22 | 40.15038 | -74.57036 | 10050 ft | 285 kts | 41° |
| 2026-05-04 00:22 | 40.16373 | -74.55116 | 10050 ft | 285 kts | 41° |
| 2026-05-04 00:22 | 40.17705 | -74.53198 | 10049 ft | 285 kts | 41° |
| 2026-05-04 00:22 | 40.19036 | -74.51279 | 10041 ft | 286 kts | 41° |
| 2026-05-04 00:23 | 40.20373 | -74.49352 | 9777 ft | 283 kts | 40° |
| 2026-05-04 00:23 | 40.21737 | -74.47518 | 9411 ft | 281 kts | 38° |
| 2026-05-04 00:23 | 40.23136 | -74.45746 | 9046 ft | 280 kts | 37° |
| 2026-05-04 00:23 | 40.24548 | -74.43994 | 8676 ft | 279 kts | 37° |
| 2026-05-04 00:24 | 40.25957 | -74.42248 | 8325 ft | 279 kts | 37° |
| 2026-05-04 00:24 | 40.27360 | -74.40500 | 7974 ft | 278 kts | 38° |
| 2026-05-04 00:24 | 40.28757 | -74.38746 | 7626 ft | 278 kts | 38° |
| 2026-05-04 00:24 | 40.30149 | -74.36992 | 7284 ft | 278 kts | 38° |
| 2026-05-04 00:25 | 40.31540 | -74.35237 | 6934 ft | 277 kts | 38° |
| 2026-05-04 00:25 | 40.32928 | -74.33486 | 6591 ft | 277 kts | 38° |
| 2026-05-04 00:25 | 40.34313 | -74.31732 | 6268 ft | 276 kts | 39° |
| 2026-05-04 00:25 | 40.35687 | -74.29987 | 6049 ft | 274 kts | 39° |
| 2026-05-04 00:26 | 40.37062 | -74.28245 | 6029 ft | 276 kts | 39° |
| 2026-05-04 00:26 | 40.38442 | -74.26495 | 6039 ft | 276 kts | 39° |
| 2026-05-04 00:26 | 40.39818 | -74.24745 | 6017 ft | 276 kts | 39° |
| 2026-05-04 00:26 | 40.41197 | -74.22993 | 6026 ft | 276 kts | 39° |
| 2026-05-04 00:27 | 40.42578 | -74.21241 | 6023 ft | 276 kts | 39° |
| 2026-05-04 00:27 | 40.43940 | -74.19505 | 6023 ft | 266 kts | 39° |
| 2026-05-04 00:27 | 40.45229 | -74.17852 | 6027 ft | 252 kts | 38° |
| 2026-05-04 00:27 | 40.46444 | -74.16294 | 6018 ft | 245 kts | 38° |
| 2026-05-04 00:28 | 40.47684 | -74.14713 | 5776 ft | 244 kts | 38° |
| 2026-05-04 00:28 | 40.48877 | -74.13189 | 5518 ft | 242 kts | 38° |
| 2026-05-04 00:28 | 40.50085 | -74.11649 | 5269 ft | 241 kts | 38° |
| 2026-05-04 00:28 | 40.51286 | -74.10117 | 5005 ft | 240 kts | 38° |
| 2026-05-04 00:29 | 40.52577 | -74.08777 | 4783 ft | 234 kts | 26° |
| 2026-05-04 00:29 | 40.53953 | -74.07628 | 4582 ft | 234 kts | 26° |
| 2026-05-04 00:29 | 40.55326 | -74.06474 | 4361 ft | 234 kts | 26° |
| 2026-05-04 00:29 | 40.56695 | -74.05319 | 4168 ft | 234 kts | 27° |
| 2026-05-04 00:30 | 40.58060 | -74.04160 | 3963 ft | 234 kts | 27° |
| 2026-05-04 00:30 | 40.59426 | -74.03001 | 3786 ft | 233 kts | 27° |
| 2026-05-04 00:30 | 40.60790 | -74.01844 | 3606 ft | 233 kts | 27° |
| 2026-05-04 00:30 | 40.62153 | -74.00686 | 3435 ft | 233 kts | 27° |
| 2026-05-04 00:31 | 40.63495 | -73.99541 | 3250 ft | 226 kts | 26° |
| 2026-05-04 00:31 | 40.64796 | -73.98431 | 3097 ft | 219 kts | 27° |
| 2026-05-04 00:31 | 40.66047 | -73.97365 | 2999 ft | 208 kts | 27° |
| 2026-05-04 00:31 | 40.67241 | -73.96338 | 3003 ft | 204 kts | 27° |
| 2026-05-04 00:32 | 40.68412 | -73.95327 | 2916 ft | 203 kts | 27° |
| 2026-05-04 00:32 | 40.69568 | -73.94291 | 2825 ft | 199 kts | 34° |
| 2026-05-04 00:32 | 40.70518 | -73.93009 | 2577 ft | 190 kts | 41° |
| 2026-05-04 00:32 | 40.71375 | -73.91772 | 2329 ft | 176 kts | 45° |
| 2026-05-04 00:33 | 40.71951 | -73.90442 | 2079 ft | 162 kts | 65° |
| 2026-05-04 00:33 | 40.72461 | -73.87665 | 1606 ft | 153 kts | 74° |
| 2026-05-04 00:33 | 40.72702 | -73.86298 | 1379 ft | 152 kts | 72° |
| 2026-05-04 00:34 | 40.73129 | -73.85061 | 1163 ft | 146 kts | 48° |
| 2026-05-04 00:34 | 40.73841 | -73.84140 | 946 ft | 141 kts | 29° |
| 2026-05-04 00:34 | 40.74710 | -73.83621 | 735 ft | 135 kts | 8° |
| 2026-05-04 00:34 | 40.75622 | -73.83551 | 534 ft | 129 kts | 348° |
| 2026-05-04 00:35 | 40.76428 | -73.83985 | 352 ft | 126 kts | 317° |
| 2026-05-04 00:35 | 40.76856 | -73.84973 | 207 ft | 125 kts | 299° |
| 2026-05-04 00:35 | 40.77301 | -73.85908 | 35 ft | 118 kts | 302° |
| 2026-05-04 00:35 | 40.77658 | -73.86651 | 14 ft | 58 kts | 302° |
| 2026-05-04 00:36 | 40.77778 | -73.86918 | 15 ft | 26 kts | 294° |
| 2026-05-04 00:36 | 40.77820 | -73.87136 | 15 ft | 14 kts | 272° |
| 2026-05-04 00:36 | 40.77818 | -73.87244 | 14 ft | 7 kts | 258° |
| 2026-05-04 00:36 | 40.77773 | -73.87268 | 15 ft | 8 kts | 152° |
| 2026-05-04 00:37 | 40.77741 | -73.87204 | 16 ft | 9 kts | 122° |
| 2026-05-04 00:37 | 40.77700 | -73.87119 | 15 ft | 13 kts | 123° |
| 2026-05-04 00:37 | 40.77648 | -73.87009 | 14 ft | 16 kts | 123° |
| 2026-05-04 00:37 | 40.77600 | -73.86943 | 15 ft | 7 kts | 187° |
| 2026-05-04 00:38 | 40.77576 | -73.86961 | 18 ft | 2 kts | 213° |
| 2026-05-04 00:38 | 40.77552 | -73.86981 | 21 ft | 6 kts | 213° |
| 2026-05-04 00:38 | 40.77482 | -73.87040 | 20 ft | 15 kts | 211° |
| 2026-05-04 00:38 | 40.77393 | -73.87109 | 21 ft | 13 kts | 200° |
| 2026-05-04 00:39 | 40.77353 | -73.87048 | 20 ft | 5 kts | 66° |
| 2026-05-04 00:39 | 40.77363 | -73.87023 | 21 ft | 1 kts | 64° |
| 2026-05-04 00:39 | 40.77367 | -73.87010 | 20 ft | 0 kts | 66° |